createdAt,value
2019-03-15T00:01:06.131Z,20.50
2019-03-15T00:08:26.077Z,20.50
2019-03-15T00:10:52.131Z,20.60
2019-03-15T00:13:19.328Z,20.60
2019-03-15T00:15:45.376Z,20.70
2019-03-15T00:18:11.423Z,20.70
2019-03-15T00:20:37.800Z,20.80
2019-03-15T00:23:04.068Z,20.80
2019-03-15T00:25:30.243Z,20.90
2019-03-15T00:27:56.600Z,20.90
2019-03-15T00:32:49.404Z,21.10
2019-03-15T00:35:15.452Z,21.20
2019-03-15T00:37:41.799Z,21.20
2019-03-15T00:42:36.108Z,21.20
2019-03-15T00:47:30.043Z,21.30
2019-03-15T00:49:56.420Z,21.30
2019-03-15T00:52:22.532Z,21.30
2019-03-15T00:54:48.624Z,21.40
2019-03-15T00:57:15.010Z,21.40
2019-03-15T00:59:41.057Z,21.40
2019-03-15T01:02:07.148Z,21.30
2019-03-15T01:04:33.193Z,21.40
2019-03-15T01:06:59.500Z,21.40
2019-03-15T01:09:25.580Z,21.40
2019-03-15T01:11:51.756Z,21.40
2019-03-15T01:14:17.805Z,21.40
2019-03-15T01:16:44.209Z,21.40
2019-03-15T01:19:10.636Z,21.40
2019-03-15T01:21:36.809Z,21.40
2019-03-15T01:28:56.114Z,21.40
2019-03-15T01:31:22.633Z,21.40
2019-03-15T01:33:48.721Z,21.40
2019-03-15T01:36:14.768Z,21.40
2019-03-15T01:38:40.823Z,21.40
2019-03-15T01:41:06.896Z,21.40
2019-03-15T01:43:33.223Z,21.40
2019-03-15T01:45:59.300Z,21.40
2019-03-15T01:48:25.352Z,21.30
2019-03-15T01:50:51.469Z,21.30
2019-03-15T01:53:17.541Z,21.30
2019-03-15T01:55:43.849Z,21.30
2019-03-15T01:58:10.198Z,21.30
2019-03-15T02:05:29.401Z,21.30
2019-03-15T02:07:55.746Z,21.30
2019-03-15T02:10:22.617Z,21.30
2019-03-15T02:12:48.820Z,21.20
2019-03-15T02:15:14.870Z,21.30
2019-03-15T02:20:07.976Z,21.30
2019-03-15T02:25:00.551Z,21.30
2019-03-15T02:27:27.489Z,21.30
2019-03-15T02:39:39.301Z,21.30
2019-03-15T02:42:05.358Z,21.40
2019-03-15T02:44:31.945Z,21.40
2019-03-15T02:46:57.993Z,21.50
2019-03-15T02:49:24.351Z,21.50
2019-03-15T02:54:17.198Z,21.50
2019-03-15T02:56:43.245Z,21.50
2019-03-15T02:59:09.701Z,21.50
2019-03-15T03:01:36.110Z,21.50
2019-03-15T03:04:02.188Z,21.50
2019-03-15T03:06:28.612Z,21.50
2019-03-15T03:08:55.992Z,21.50
2019-03-15T03:11:22.319Z,21.50
2019-03-15T03:13:48.398Z,21.50
2019-03-15T03:16:14.486Z,21.60
2019-03-15T03:18:40.531Z,21.50
2019-03-15T03:21:06.927Z,21.50
2019-03-15T03:25:59.732Z,21.50
2019-03-15T03:28:26.057Z,21.50
2019-03-15T03:30:52.199Z,21.50
2019-03-15T03:33:18.409Z,21.50
2019-03-15T03:35:44.809Z,21.50
2019-03-15T03:38:12.288Z,21.50
2019-03-15T03:40:39.077Z,21.40
2019-03-15T03:45:31.944Z,21.50
2019-03-15T03:50:24.448Z,21.40
2019-03-15T03:52:50.561Z,21.40
2019-03-15T03:57:43.059Z,21.40
2019-03-15T04:00:13.983Z,21.40
2019-03-15T04:02:40.060Z,21.30
2019-03-15T04:05:06.508Z,21.30
2019-03-15T04:09:59.000Z,21.30
2019-03-15T04:14:51.648Z,21.30
2019-03-15T04:17:18.189Z,21.30
2019-03-15T04:19:44.676Z,21.30
2019-03-15T04:22:10.725Z,21.30
2019-03-15T04:27:03.852Z,21.30
2019-03-15T04:31:56.343Z,21.20
2019-03-15T04:34:22.419Z,21.30
2019-03-15T04:36:48.496Z,21.20
2019-03-15T04:39:14.575Z,21.20
2019-03-15T04:41:40.924Z,21.20
2019-03-15T04:44:07.050Z,21.20
2019-03-15T04:48:59.557Z,21.10
2019-03-15T04:51:25.639Z,21.10
2019-03-15T04:53:51.823Z,21.20
2019-03-15T04:56:17.929Z,21.10
2019-03-15T04:58:44.006Z,21.10
2019-03-15T05:01:10.053Z,21.00
2019-03-15T05:03:36.219Z,21.10
2019-03-15T05:06:03.852Z,21.10
2019-03-15T05:08:30.320Z,21.00
2019-03-15T05:10:56.684Z,21.00
2019-03-15T05:13:23.009Z,21.00
2019-03-15T05:15:49.067Z,21.00
2019-03-15T05:18:15.111Z,21.00
2019-03-15T05:20:41.494Z,20.90
2019-03-15T05:23:07.535Z,21.00
2019-03-15T05:28:00.073Z,20.90
2019-03-15T05:30:26.119Z,20.90
2019-03-15T05:35:19.005Z,20.90
2019-03-15T05:37:45.080Z,20.90
2019-03-15T05:42:37.904Z,20.80
2019-03-15T05:45:10.107Z,20.80
2019-03-15T05:47:36.159Z,20.80
2019-03-15T05:50:05.748Z,20.80
2019-03-15T05:55:20.174Z,20.80
2019-03-15T05:57:46.211Z,20.80
2019-03-15T06:00:14.095Z,20.70
2019-03-15T06:05:08.991Z,20.70
2019-03-15T06:07:36.061Z,20.70
2019-03-15T06:10:03.203Z,20.70
2019-03-15T06:12:29.293Z,20.70
2019-03-15T06:14:55.337Z,20.70
2019-03-15T06:17:21.694Z,20.70
2019-03-15T06:19:47.771Z,20.70
2019-03-15T06:24:40.311Z,20.60
2019-03-15T06:27:06.360Z,20.60
2019-03-15T06:29:32.717Z,20.60
2019-03-15T06:31:58.906Z,20.60
2019-03-15T06:34:25.014Z,20.60
2019-03-15T06:39:17.831Z,20.50
2019-03-15T06:44:10.353Z,20.50
2019-03-15T06:46:36.398Z,20.50
2019-03-15T06:49:02.443Z,20.50
2019-03-15T06:51:28.535Z,20.50
2019-03-15T06:53:54.616Z,20.50
2019-03-15T06:56:21.019Z,20.50
2019-03-15T06:58:47.096Z,20.50
2019-03-15T07:01:13.147Z,20.50
2019-03-15T07:03:39.219Z,20.40
2019-03-15T07:06:05.263Z,20.40
2019-03-15T07:08:31.348Z,20.40
2019-03-15T07:10:57.492Z,20.40
2019-03-15T07:13:23.589Z,20.40
2019-03-15T07:15:49.635Z,20.30
2019-03-15T07:18:18.490Z,20.40
2019-03-15T07:20:44.024Z,20.30
2019-03-15T07:25:36.819Z,20.30
2019-03-15T07:28:03.202Z,20.30
2019-03-15T07:30:29.251Z,20.30
2019-03-15T07:35:23.311Z,20.30
2019-03-15T07:37:49.397Z,20.30
2019-03-15T07:40:15.671Z,20.30
2019-03-15T07:45:10.848Z,20.20
2019-03-15T07:50:06.956Z,20.20
2019-03-15T07:52:33.010Z,20.20
2019-03-15T07:54:59.083Z,20.20
2019-03-15T07:57:25.507Z,20.20
2019-03-15T08:02:18.272Z,20.20
2019-03-15T08:12:04.260Z,20.10
2019-03-15T08:14:30.632Z,20.10
2019-03-15T08:16:57.069Z,20.10
2019-03-15T08:19:23.396Z,20.10
2019-03-15T08:21:49.452Z,20.10
2019-03-15T08:24:15.849Z,20.10
2019-03-15T08:26:41.949Z,20.00
2019-03-15T08:29:09.626Z,20.10
2019-03-15T08:31:36.020Z,20.00
2019-03-15T08:36:29.240Z,20.00
2019-03-15T08:38:55.572Z,20.00
2019-03-15T08:41:22.017Z,20.00
2019-03-15T08:43:48.056Z,19.90
2019-03-15T08:46:14.340Z,20.00
2019-03-15T08:48:40.690Z,20.00
2019-03-15T08:51:10.318Z,20.00
2019-03-15T08:53:35.289Z,20.00
2019-03-15T08:56:01.418Z,20.00
2019-03-15T08:58:27.467Z,19.90
2019-03-15T09:00:53.532Z,19.90
2019-03-15T09:03:28.020Z,19.90
2019-03-15T09:05:47.864Z,19.90
2019-03-15T09:08:13.903Z,19.90
2019-03-15T09:10:39.991Z,19.90
2019-03-15T09:15:32.452Z,19.90
2019-03-15T09:17:58.894Z,19.90
2019-03-15T09:20:29.693Z,19.90
2019-03-15T09:22:53.188Z,19.90
2019-03-15T09:25:20.721Z,19.90
2019-03-15T09:27:47.249Z,19.80
2019-03-15T09:30:23.290Z,19.80
2019-03-15T09:32:43.649Z,19.80
2019-03-15T09:35:10.726Z,19.80
2019-03-15T09:40:07.369Z,19.80
2019-03-15T09:42:33.412Z,19.80
2019-03-15T09:44:59.467Z,19.80
2019-03-15T09:47:25.813Z,19.70
2019-03-15T09:49:51.856Z,19.80
2019-03-15T09:52:17.931Z,19.70
2019-03-15T09:54:44.020Z,19.70
2019-03-15T09:59:37.050Z,19.70
2019-03-15T10:02:03.092Z,19.70
2019-03-15T10:06:55.833Z,19.70
2019-03-15T10:09:22.185Z,19.70
2019-03-15T10:11:48.591Z,19.70
2019-03-15T10:14:14.930Z,19.70
2019-03-15T10:16:41.325Z,19.70
2019-03-15T10:19:07.685Z,19.60
2019-03-15T10:21:33.763Z,19.60
2019-03-15T10:23:59.817Z,19.60
2019-03-15T10:26:26.160Z,19.60
2019-03-15T10:28:52.491Z,19.60
2019-03-15T10:31:18.825Z,19.60
2019-03-15T10:33:50.384Z,19.60
2019-03-15T10:36:12.827Z,19.60
2019-03-15T10:38:39.101Z,19.60
2019-03-15T10:41:05.473Z,19.60
2019-03-15T10:45:58.274Z,19.60
2019-03-15T10:48:25.759Z,19.60
2019-03-15T10:50:52.448Z,19.60
2019-03-15T10:53:18.760Z,19.60
2019-03-15T10:58:11.296Z,19.60
2019-03-15T11:00:37.649Z,19.50
2019-03-15T11:03:04.075Z,19.50
2019-03-15T11:05:30.423Z,19.50
2019-03-15T11:07:56.561Z,19.50
2019-03-15T11:10:22.640Z,19.50
2019-03-15T11:12:48.983Z,19.50
2019-03-15T11:17:41.872Z,19.50
2019-03-15T11:20:10.156Z,19.50
2019-03-15T11:22:36.307Z,19.50
2019-03-15T11:25:04.425Z,19.40
2019-03-15T11:27:30.487Z,19.40
2019-03-15T11:29:56.569Z,19.50
2019-03-15T11:32:22.625Z,19.40
2019-03-15T11:34:48.719Z,19.40
2019-03-15T11:37:15.057Z,19.40
2019-03-15T11:39:41.099Z,19.40
2019-03-15T11:42:07.175Z,19.40
2019-03-15T11:44:33.219Z,19.40
2019-03-15T11:46:59.274Z,19.40
2019-03-15T11:51:53.953Z,19.40
2019-03-15T11:54:20.326Z,19.40
2019-03-15T11:56:46.464Z,19.40
2019-03-15T11:59:12.511Z,19.40
2019-03-15T12:01:38.601Z,19.40
2019-03-15T12:04:04.653Z,19.40
2019-03-15T12:06:30.737Z,19.40
2019-03-15T12:08:56.783Z,19.40
2019-03-15T12:11:23.157Z,19.40
2019-03-15T12:18:42.109Z,19.40
2019-03-15T12:23:34.601Z,19.40
2019-03-15T12:26:00.694Z,19.30
2019-03-15T12:30:53.196Z,19.30
2019-03-15T12:33:19.243Z,19.30
2019-03-15T12:35:45.350Z,19.30
2019-03-15T12:40:38.397Z,19.30
2019-03-15T12:43:04.504Z,19.30
2019-03-15T12:45:30.958Z,19.30
2019-03-15T12:50:24.025Z,19.30
2019-03-15T12:52:50.122Z,19.30
2019-03-15T12:55:16.181Z,19.30
2019-03-15T12:57:42.601Z,19.30
2019-03-15T13:05:13.129Z,19.30
2019-03-15T13:07:39.673Z,19.30
2019-03-15T13:15:04.308Z,19.30
2019-03-15T13:17:30.423Z,19.30
2019-03-15T13:19:56.477Z,19.20
2019-03-15T13:24:50.240Z,19.20
2019-03-15T13:27:16.297Z,19.20
2019-03-15T13:29:42.424Z,19.20
2019-03-15T13:34:35.268Z,19.20
2019-03-15T13:37:01.318Z,19.20
2019-03-15T13:41:54.461Z,19.20
2019-03-15T13:44:20.508Z,19.20
2019-03-15T13:46:46.624Z,19.30
2019-03-15T13:49:12.984Z,19.20
2019-03-15T13:51:39.086Z,19.20
2019-03-15T13:54:05.309Z,19.20
2019-03-15T13:56:31.615Z,19.20
2019-03-15T13:58:57.844Z,19.20
2019-03-15T14:01:25.300Z,19.20
2019-03-15T14:03:51.362Z,19.20
2019-03-15T14:06:17.463Z,19.20
2019-03-15T14:08:43.512Z,19.20
2019-03-15T14:11:09.560Z,19.20
2019-03-15T14:13:35.673Z,19.20
2019-03-15T14:20:54.807Z,19.20
2019-03-15T14:23:21.145Z,19.20
2019-03-15T14:25:47.259Z,19.20
2019-03-15T14:28:13.307Z,19.10
2019-03-15T14:30:39.372Z,19.20
2019-03-15T14:33:05.484Z,19.20
2019-03-15T14:35:31.532Z,19.20
2019-03-15T14:37:57.891Z,19.20
2019-03-15T14:40:24.086Z,19.20
2019-03-15T14:42:50.843Z,19.10
2019-03-15T14:45:17.994Z,19.20
2019-03-15T14:47:44.204Z,19.20
2019-03-15T14:50:12.615Z,19.20
2019-03-15T14:55:07.832Z,19.20
2019-03-15T14:57:34.264Z,19.10
2019-03-15T15:00:00.906Z,19.10
2019-03-15T15:02:26.953Z,19.10
2019-03-15T15:07:20.813Z,19.10
2019-03-15T15:12:14.407Z,19.10
2019-03-15T15:14:40.522Z,19.10
2019-03-15T15:17:06.706Z,19.10
2019-03-15T15:19:33.683Z,19.10
2019-03-15T15:22:00.028Z,19.10
2019-03-15T15:24:26.075Z,19.10
2019-03-15T15:26:52.188Z,19.00
2019-03-15T15:29:18.236Z,19.10
2019-03-15T15:31:44.299Z,19.00
2019-03-15T15:36:37.388Z,19.00
2019-03-15T15:39:05.699Z,19.00
2019-03-15T15:46:24.956Z,19.00
2019-03-15T15:48:51.014Z,19.00
2019-03-15T15:51:17.412Z,19.00
2019-03-15T15:53:43.465Z,19.00
2019-03-15T15:58:36.400Z,19.00
2019-03-15T16:01:02.836Z,19.00
2019-03-15T16:03:29.267Z,19.00
2019-03-15T16:05:55.308Z,19.00
2019-03-15T16:10:47.917Z,18.90
2019-03-15T16:13:17.209Z,19.00
2019-03-15T16:15:41.937Z,18.90
2019-03-15T16:18:08.045Z,18.90
2019-03-15T16:20:34.092Z,18.90
2019-03-15T16:27:53.351Z,18.90
2019-03-15T16:30:20.226Z,18.90
2019-03-15T16:32:47.680Z,18.90
2019-03-15T16:35:13.990Z,18.90
2019-03-15T16:42:34.884Z,18.90
2019-03-15T16:45:00.991Z,18.90
2019-03-15T16:49:53.924Z,18.90
2019-03-15T16:52:20.080Z,18.90
2019-03-15T16:57:12.923Z,18.90
2019-03-15T17:02:05.447Z,18.90
2019-03-15T17:07:00.818Z,18.90
2019-03-15T17:11:53.055Z,18.90
2019-03-15T17:14:25.282Z,18.80
2019-03-15T17:19:13.806Z,18.80
2019-03-15T17:21:39.924Z,18.80
2019-03-15T17:26:32.381Z,18.80
2019-03-15T17:28:59.149Z,18.70
2019-03-15T17:31:25.187Z,18.80
2019-03-15T17:33:51.300Z,18.80
2019-03-15T17:36:17.693Z,18.80
2019-03-15T17:38:43.737Z,18.80
2019-03-15T17:41:09.851Z,18.80
2019-03-15T17:48:28.843Z,18.70
2019-03-15T17:50:54.888Z,18.80
2019-03-15T17:53:21.000Z,18.70
2019-03-15T17:55:47.043Z,18.70
2019-03-15T17:58:13.162Z,18.80
2019-03-15T18:00:48.145Z,18.80
2019-03-15T18:03:21.469Z,18.80
2019-03-15T18:05:43.008Z,18.90
2019-03-15T18:08:09.052Z,18.90
2019-03-15T18:13:01.647Z,19.00
2019-03-15T18:15:27.787Z,19.00
2019-03-15T18:17:53.832Z,19.10
2019-03-15T18:20:21.347Z,19.20
2019-03-15T18:22:48.491Z,19.30
2019-03-15T18:25:14.823Z,19.50
2019-03-15T18:30:16.942Z,19.80
2019-03-15T18:37:38.192Z,20.10
2019-03-15T18:40:17.280Z,20.10
2019-03-15T18:42:43.336Z,20.10
2019-03-15T18:47:43.098Z,20.20
2019-03-15T18:50:18.937Z,20.20
2019-03-15T18:55:11.741Z,20.20
2019-03-15T19:00:25.314Z,20.30
2019-03-15T19:02:51.533Z,20.30
2019-03-15T19:05:17.571Z,20.40
2019-03-15T19:07:43.617Z,20.40
2019-03-15T19:10:13.227Z,20.40
2019-03-15T19:12:39.276Z,20.40
2019-03-15T19:17:33.701Z,20.40
2019-03-15T19:20:00.023Z,20.40
2019-03-15T19:27:19.938Z,20.40
2019-03-15T19:32:14.684Z,20.40
2019-03-15T19:34:40.731Z,20.50
2019-03-15T19:39:33.525Z,20.40
2019-03-15T19:41:59.573Z,20.50
2019-03-15T19:46:52.095Z,20.40
2019-03-15T19:49:18.203Z,20.50
2019-03-15T19:51:44.360Z,20.40
2019-03-15T19:54:10.452Z,20.40
2019-03-15T19:59:02.981Z,20.50
2019-03-15T20:01:29.255Z,20.50
2019-03-15T20:03:56.252Z,20.50
2019-03-15T20:06:22.543Z,20.50
2019-03-15T20:08:48.653Z,20.50
2019-03-15T20:11:14.760Z,20.50
2019-03-15T20:16:07.558Z,20.50
2019-03-15T20:18:33.664Z,20.50
2019-03-15T20:23:26.534Z,20.60
2019-03-15T20:25:52.875Z,20.70
2019-03-15T20:28:19.514Z,20.80
2019-03-15T20:33:14.199Z,20.90
2019-03-15T20:35:40.548Z,20.90
2019-03-15T20:38:06.881Z,21.00
2019-03-15T20:40:33.312Z,21.00
2019-03-15T20:45:28.223Z,21.10
2019-03-15T20:50:21.072Z,21.20
2019-03-15T20:55:13.597Z,21.20
2019-03-15T21:00:10.199Z,21.00
2019-03-15T21:02:36.529Z,21.00
2019-03-15T21:05:04.339Z,21.00
2019-03-15T21:07:30.454Z,21.00
2019-03-15T21:09:56.500Z,21.00
2019-03-15T21:12:22.874Z,20.90
2019-03-15T21:14:48.920Z,20.90
2019-03-15T21:17:14.969Z,20.90
2019-03-15T21:19:41.347Z,20.90
2019-03-15T21:22:07.495Z,20.80
2019-03-15T21:24:33.605Z,20.80
2019-03-15T21:26:59.662Z,20.80
2019-03-15T21:29:25.769Z,20.80
2019-03-15T21:31:51.816Z,20.80
2019-03-15T21:34:18.205Z,20.80
2019-03-15T21:39:11.071Z,20.80
2019-03-15T21:41:37.117Z,20.70
2019-03-15T21:44:03.236Z,20.70
2019-03-15T21:51:23.668Z,20.70
2019-03-15T21:53:49.970Z,20.70
2019-03-15T21:56:16.030Z,20.60
2019-03-15T21:58:42.436Z,20.70
2019-03-15T22:01:08.591Z,20.60
2019-03-15T22:03:34.976Z,20.60
2019-03-15T22:06:01.035Z,20.60
2019-03-15T22:08:27.075Z,20.60
2019-03-15T22:10:53.176Z,20.60
2019-03-15T22:13:19.284Z,20.60
2019-03-15T22:15:45.337Z,20.60
2019-03-15T22:20:38.169Z,20.50
2019-03-15T22:25:30.627Z,20.50
2019-03-15T22:27:57.164Z,20.50
2019-03-15T22:32:49.655Z,20.60
2019-03-15T22:37:42.145Z,20.60
2019-03-15T22:40:10.847Z,20.70
2019-03-15T22:42:37.484Z,20.80
2019-03-15T22:47:31.775Z,20.90
2019-03-15T22:49:57.854Z,20.90
2019-03-15T22:54:50.340Z,21.00
2019-03-15T23:02:09.864Z,21.10
2019-03-15T23:04:35.945Z,21.10
2019-03-15T23:07:02.029Z,21.10
2019-03-15T23:11:54.831Z,21.20
2019-03-15T23:14:21.211Z,21.20
2019-03-15T23:16:47.533Z,21.20
2019-03-15T23:21:40.259Z,21.20
2019-03-15T23:24:06.343Z,21.20
2019-03-15T23:26:32.669Z,21.20
2019-03-15T23:28:59.091Z,21.20
2019-03-15T23:31:25.138Z,21.20
2019-03-15T23:36:18.071Z,21.20
2019-03-15T23:38:44.406Z,21.20
2019-03-15T23:41:10.467Z,21.20
2019-03-15T23:43:36.851Z,21.20
2019-03-15T23:46:02.899Z,21.20
2019-03-15T23:48:29.021Z,21.20
2019-03-15T23:53:21.507Z,21.20
2019-03-15T23:55:47.558Z,21.10
